Time;durP1;ratioP1;P1;durP2;ratioP2;P2;SDS_P1;SDS_P2;PMS_P1;PMS_P2;Temp;Humidity;BMP_temperature;BMP_pressure;BME280_temperature;BME280_humidity;BME280_pressure;Samples;Min_cycle;Max_cycle;Signal;HPM_P1;HPM_P2
2023/05/30 00:01:43;;;;;;;7.80;2.10;;;;;;;12.39;61.37;100998.41;214095;1292;139510;-87
2023/05/30 00:06:44;;;;;;;10.80;2.60;;;;;;;12.37;61.31;100992.23;214416;1291;137907;-87
2023/05/30 00:11:44;;;;;;;6.90;2.40;;;;;;;12.34;61.44;100999.61;213607;1294;140657;-88
2023/05/30 00:16:44;;;;;;;9.90;2.70;;;;;;;12.30;61.43;101002.31;214062;1292;138174;-87
2023/05/30 00:21:46;;;;;;;9.30;2.60;;;;;;;12.25;61.57;101000.98;213716;1291;139406;-87
2023/05/30 00:26:46;;;;;;;10.80;2.90;;;;;;;12.21;61.83;101003.69;216076;1292;138187;-87
2023/05/30 00:31:46;;;;;;;10.80;2.50;;;;;;;12.18;61.91;101008.54;217073;1292;140762;-87
2023/05/30 00:36:47;;;;;;;9.20;2.50;;;;;;;12.14;62.02;101012.66;217685;1292;138163;-87
2023/05/30 00:41:47;;;;;;;7.60;2.70;;;;;;;12.08;62.70;101010.21;216977;1291;139381;-87
2023/05/30 00:46:50;;;;;;;7.20;2.60;;;;;;;12.02;62.79;101008.00;217563;1291;138456;-87
2023/05/30 00:51:51;;;;;;;6.10;2.10;;;;;;;11.96;63.25;101006.73;216943;1291;140158;-87
2023/05/30 00:56:52;;;;;;;8.20;2.30;;;;;;;11.89;63.50;101004.27;217657;1291;137672;-87
2023/05/30 01:01:52;;;;;;;15.00;4.00;;;;;;;11.83;63.69;101005.73;217026;1290;139802;-88
2023/05/30 01:06:53;;;;;;;8.00;2.50;;;;;;;11.75;63.74;101004.98;217496;1292;137671;-87
2023/05/30 01:12:04;;;;;;;9.60;2.70;;;;;;;11.66;63.85;101003.12;217003;1291;140612;-86
2023/05/30 01:17:27;;;;;;;11.50;3.10;;;;;;;11.56;64.12;100999.61;217542;1291;137787;-87
2023/05/30 01:22:50;;;;;;;9.50;3.00;;;;;;;11.46;64.59;101005.66;216942;1291;140181;-87
2023/05/30 01:28:09;;;;;;;7.80;2.70;;;;;;;11.35;64.97;101005.71;217437;1291;137897;-86
2023/05/30 01:33:13;;;;;;;10.10;2.50;;;;;;;11.21;65.81;101010.90;217043;1292;139650;-87
2023/05/30 01:38:14;;;;;;;9.90;2.90;;;;;;;11.00;66.14;101012.73;217517;1292;94925;-87
2023/05/30 01:43:20;;;;;;;10.50;2.80;;;;;;;10.84;66.04;101012.89;217081;1290;140255;-87
2023/05/30 01:48:27;;;;;;;;;;;;;;;10.72;66.17;101014.38;217563;1291;137652;-86
2023/05/30 01:53:38;;;;;;;9.40;3.30;;;;;;;10.58;66.73;101018.19;217021;1291;126783;-86
2023/05/30 01:58:39;;;;;;;11.80;2.90;;;;;;;10.46;66.82;101016.75;217535;1291;137662;-86
2023/05/30 02:03:40;;;;;;;8.90;2.90;;;;;;;10.33;67.20;101016.97;217114;1294;139064;-86
2023/05/30 02:08:40;;;;;;;8.30;2.90;;;;;;;10.18;67.60;101025.50;217623;1291;140355;-86
2023/05/30 02:13:41;;;;;;;9.50;2.90;;;;;;;10.05;68.06;101033.21;216926;1292;139643;-86
2023/05/30 02:18:41;;;;;;;10.40;2.60;;;;;;;9.91;68.59;101036.03;217673;1291;138030;-87
2023/05/30 02:23:41;;;;;;;8.90;2.60;;;;;;;9.79;68.79;101035.39;217131;1291;140530;-87
2023/05/30 02:28:42;;;;;;;8.90;3.10;;;;;;;9.67;69.05;101033.08;217547;1291;138321;-86
2023/05/30 02:33:43;;;;;;;10.20;4.10;;;;;;;9.55;69.42;101030.04;216766;1291;139805;-86
2023/05/30 02:38:44;;;;;;;7.80;2.80;;;;;;;9.41;70.59;101035.41;217453;1292;138294;-87
2023/05/30 02:43:44;;;;;;;10.80;2.80;;;;;;;9.23;71.56;101031.71;216959;1292;140801;-86
2023/05/30 02:48:45;;;;;;;10.30;3.00;;;;;;;9.05;72.31;101035.27;217470;1292;139025;-87
2023/05/30 02:53:45;;;;;;;11.10;3.00;;;;;;;8.94;73.12;101031.66;216985;1291;140646;-88
2023/05/30 02:58:46;;;;;;;13.80;3.20;;;;;;;8.84;73.94;101029.27;217227;1291;141145;-84
2023/05/30 03:03:47;;;;;;;13.70;5.20;;;;;;;8.76;74.56;101039.88;217328;1291;152627;-86
2023/05/30 03:09:00;;;;;;;11.50;3.50;;;;;;;8.70;75.32;101049.50;217091;1291;140685;-87
2023/05/30 03:14:00;;;;;;;16.50;3.00;;;;;;;8.66;75.64;101047.87;217638;1291;104563;-87
2023/05/30 03:19:01;;;;;;;16.10;3.60;;;;;;;8.63;76.55;101054.00;217107;1290;141422;-87
2023/05/30 03:24:02;;;;;;;9.40;3.00;;;;;;;8.58;77.72;101059.27;217515;1292;138120;-86
2023/05/30 03:29:03;;;;;;;12.30;3.00;;;;;;;8.56;77.41;101058.95;216905;1291;141586;-87
2023/05/30 03:34:04;;;;;;;14.30;3.40;;;;;;;8.53;78.08;101059.65;217643;1291;138403;-87
2023/05/30 03:39:04;;;;;;;11.90;3.10;;;;;;;8.52;77.70;101065.05;217000;1293;141172;-87
2023/05/30 03:44:05;;;;;;;9.00;2.40;;;;;;;8.52;78.26;101062.64;217587;1292;95082;-87
2023/05/30 03:49:05;;;;;;;11.60;2.80;;;;;;;8.54;78.97;101061.81;216985;1291;140108;-87
2023/05/30 03:54:06;;;;;;;11.10;2.80;;;;;;;8.56;79.17;101064.53;217396;1293;138161;-88
2023/05/30 03:59:07;;;;;;;15.50;3.60;;;;;;;8.57;78.94;101070.90;216958;1292;141038;-87
2023/05/30 04:04:08;;;;;;;16.80;3.00;;;;;;;8.58;79.33;101075.90;217537;1293;138888;-87
2023/05/30 04:09:08;;;;;;;8.20;2.70;;;;;;;8.62;79.77;101077.73;216957;1291;142139;-88
2023/05/30 04:14:08;;;;;;;16.40;3.00;;;;;;;8.67;80.03;101076.86;217712;1294;94875;-87
2023/05/30 04:19:10;;;;;;;10.40;4.00;;;;;;;8.74;80.81;101077.76;217047;1291;142213;-88
2023/05/30 04:24:10;;;;;;;15.50;3.50;;;;;;;8.81;80.68;101080.77;217473;1293;138395;-86
2023/05/30 04:29:11;;;;;;;14.50;3.40;;;;;;;8.89;81.26;101083.98;216899;1292;160723;-89
2023/05/30 04:34:11;;;;;;;12.90;3.60;;;;;;;8.99;81.42;101087.73;217552;1291;138389;-87
2023/05/30 04:39:12;;;;;;;12.60;4.20;;;;;;;9.09;81.43;101087.79;217112;1291;141837;-87
2023/05/30 04:44:12;;;;;;;14.30;3.10;;;;;;;9.20;81.63;101086.42;217634;1291;95236;-88
2023/05/30 04:49:15;;;;;;;13.20;3.10;;;;;;;9.32;81.98;101082.74;217045;1292;141630;-88
2023/05/30 04:54:15;;;;;;;8.60;2.40;;;;;;;9.47;81.77;101087.84;217517;1294;139357;-87
2023/05/30 04:59:16;;;;;;;12.00;2.90;;;;;;;9.62;81.46;101096.08;216983;1291;141892;-88
2023/05/30 05:04:16;;;;;;;10.20;3.00;;;;;;;9.75;81.21;101098.86;217536;1291;138374;-88
2023/05/30 05:09:17;;;;;;;10.20;3.10;;;;;;;9.91;80.98;101102.71;217023;1291;140900;-87
2023/05/30 05:14:17;;;;;;;9.90;3.50;;;;;;;10.10;80.98;101112.63;217544;1292;94841;-87
2023/05/30 05:19:18;;;;;;;9.20;2.70;;;;;;;10.35;80.70;101119.83;216840;1291;142184;-89
2023/05/30 05:24:19;;;;;;;9.20;2.90;;;;;;;10.75;80.78;101119.61;217285;1293;138624;-89
2023/05/30 05:29:19;;;;;;;15.00;3.80;;;;;;;11.34;80.41;101119.54;216769;1293;141070;-90
2023/05/30 05:34:20;;;;;;;10.80;3.70;;;;;;;12.15;79.52;101120.83;217211;1291;138841;-90
2023/05/30 05:39:21;;;;;;;10.30;2.80;;;;;;;13.12;77.64;101121.63;216860;1291;140500;-91
2023/05/30 05:44:21;;;;;;;8.60;2.80;;;;;;;14.22;74.70;101119.87;217501;1292;138787;-88
2023/05/30 05:49:22;;;;;;;11.80;2.60;;;;;;;15.30;71.44;101121.48;217152;1291;140313;-90
2023/05/30 05:54:22;;;;;;;7.80;2.20;;;;;;;16.34;67.45;101128.35;217426;1291;139176;-91
2023/05/30 05:59:22;;;;;;;7.50;2.40;;;;;;;17.38;64.27;101130.02;216992;1290;140136;-92
2023/05/30 06:04:22;;;;;;;8.50;2.20;;;;;;;18.27;61.68;101130.67;217621;1291;137786;-90
2023/05/30 06:09:30;;;;;;;5.80;1.70;;;;;;;19.10;57.89;101137.23;216864;1293;139861;-91
2023/05/30 06:14:30;;;;;;;8.70;2.10;;;;;;;19.87;55.74;101141.73;217229;1292;137853;-88
2023/05/30 06:19:31;;;;;;;8.00;2.60;;;;;;;20.73;52.38;101144.12;217095;1290;140323;-90
2023/05/30 06:24:31;;;;;;;5.90;2.40;;;;;;;21.28;50.83;101147.50;217347;1294;139167;-88
2023/05/30 06:29:34;;;;;;;9.80;2.00;;;;;;;21.96;50.30;101151.57;217021;1292;140523;-88
2023/05/30 06:34:35;;;;;;;8.70;2.20;;;;;;;22.74;47.35;101156.34;217454;1291;137839;-89
2023/05/30 06:39:35;;;;;;;7.30;1.70;;;;;;;23.18;46.36;101154.13;217022;1291;139631;-91
2023/05/30 06:44:36;;;;;;;5.20;1.80;;;;;;;23.55;44.16;101159.14;217291;1293;137799;-90
2023/05/30 06:49:37;;;;;;;9.70;2.80;;;;;;;23.60;42.37;101166.69;217138;1292;140091;-89
2023/05/30 06:54:37;;;;;;;7.70;1.90;;;;;;;23.69;42.38;101173.56;217412;1291;138132;-88
2023/05/30 06:59:37;;;;;;;6.90;1.80;;;;;;;24.09;41.61;101171.34;217052;1291;140741;-90
2023/05/30 07:04:38;;;;;;;8.00;2.10;;;;;;;24.31;41.24;101169.31;217566;1292;138464;-91
2023/05/30 07:09:38;;;;;;;10.90;2.60;;;;;;;24.43;40.95;101172.77;216979;1291;140396;-91
2023/05/30 07:14:39;;;;;;;7.70;2.10;;;;;;;24.74;40.41;101177.96;217426;1291;137994;-90
2023/05/30 07:19:39;;;;;;;8.30;1.70;;;;;;;24.99;39.71;101178.86;217052;1295;140079;-90
2023/05/30 07:24:40;;;;;;;10.20;2.60;;;;;;;25.04;38.88;101179.31;217397;1290;137623;-91
2023/05/30 07:29:41;;;;;;;8.30;1.90;;;;;;;25.13;39.36;101182.05;216984;1292;140191;-90
2023/05/30 07:34:42;;;;;;;7.80;2.40;;;;;;;25.58;38.62;101181.83;217516;1292;137817;-90
2023/05/30 07:39:43;;;;;;;7.60;2.30;;;;;;;25.70;37.95;101182.31;216986;1292;140356;-90
2023/05/30 07:44:43;;;;;;;7.30;2.10;;;;;;;25.88;37.23;101182.81;217122;1291;137987;-89
2023/05/30 07:49:44;;;;;;;7.90;2.00;;;;;;;25.82;36.68;101184.16;217061;1291;142682;-89
2023/05/30 07:54:44;;;;;;;8.90;2.00;;;;;;;25.85;36.50;101184.72;217585;1291;137625;-89
2023/05/30 07:59:45;;;;;;;5.00;1.70;;;;;;;25.82;35.25;101185.80;216950;1291;140626;-91
2023/05/30 08:04:45;;;;;;;6.80;1.90;;;;;;;25.87;35.65;101186.55;217532;1294;138002;-91
2023/05/30 08:09:46;;;;;;;7.30;2.30;;;;;;;26.52;35.52;101182.77;217026;1292;140228;-88
2023/05/30 08:14:47;;;;;;;6.10;2.10;;;;;;;27.13;34.77;101183.86;217505;1290;138155;-90
2023/05/30 08:19:47;;;;;;;6.40;1.70;;;;;;;27.75;33.84;101179.52;217100;1292;139942;-86
2023/05/30 08:24:50;;;;;;;7.00;2.20;;;;;;;28.22;33.34;101184.09;217500;1291;137900;-91
2023/05/30 08:29:50;;;;;;;5.20;2.00;;;;;;;28.98;33.42;101188.08;216795;1292;139391;-88
2023/05/30 08:34:50;;;;;;;5.10;2.20;;;;;;;29.63;31.62;101184.33;217483;1290;138055;-87
2023/05/30 08:39:51;;;;;;;7.80;2.10;;;;;;;29.91;30.35;101180.38;216959;1292;140108;-90
2023/05/30 08:44:51;;;;;;;6.80;2.10;;;;;;;29.98;29.53;101177.34;217368;1292;137976;-89
2023/05/30 08:49:52;;;;;;;7.10;2.00;;;;;;;30.49;30.31;101183.04;216898;1293;140618;-90
2023/05/30 08:55:07;;;;;;;6.80;2.30;;;;;;;31.09;29.34;101181.55;217679;1291;137711;-92
2023/05/30 09:00:09;;;;;;;6.00;2.00;;;;;;;31.65;29.09;101180.54;216900;1292;140402;-90
2023/05/30 09:05:12;;;;;;;6.10;1.90;;;;;;;32.25;28.39;101176.05;217135;1293;138426;-90
2023/05/30 09:10:12;;;;;;;6.60;1.80;;;;;;;32.64;27.94;101182.04;216915;1294;139270;-87
2023/05/30 09:15:13;;;;;;;6.90;1.70;;;;;;;33.18;27.30;101186.10;217318;1292;138181;-89
2023/05/30 09:20:16;;;;;;;5.10;1.70;;;;;;;33.64;26.93;101182.98;217311;1291;139981;-89
2023/05/30 09:25:17;;;;;;;6.30;1.70;;;;;;;33.94;26.24;101184.46;217596;1292;137661;-88
2023/05/30 09:30:19;;;;;;;4.90;2.10;;;;;;;34.42;25.87;101182.36;216974;1294;139809;-89
2023/05/30 09:35:24;;;;;;;4.80;1.80;;;;;;;34.59;25.38;101179.88;217447;1290;138404;-88
2023/05/30 09:40:25;;;;;;;5.10;1.80;;;;;;;34.76;24.40;101178.31;216771;1292;141327;-89
2023/05/30 09:45:25;;;;;;;4.00;1.90;;;;;;;34.84;24.69;101171.60;217350;1291;138524;-89
2023/05/30 09:50:26;;;;;;;5.00;1.80;;;;;;;35.39;24.13;101172.41;216883;1292;140279;-90
2023/05/30 09:55:28;;;;;;;4.00;1.80;;;;;;;35.36;22.43;101178.27;217574;1292;94883;-86
2023/05/30 10:00:29;;;;;;;5.90;2.20;;;;;;;34.61;23.25;101176.75;216971;1291;139659;-87
2023/05/30 10:05:30;;;;;;;6.40;1.70;;;;;;;35.08;23.80;101181.50;217282;1293;138052;-90
2023/05/30 10:10:31;;;;;;;4.80;1.70;;;;;;;34.73;21.86;101182.83;216865;1292;139828;-88
2023/05/30 10:15:32;;;;;;;6.90;2.00;;;;;;;34.84;22.91;101185.77;217078;1292;138429;-86
2023/05/30 10:20:36;;;;;;;7.80;1.80;;;;;;;35.51;23.13;101189.78;216800;1292;140361;-89
2023/05/30 10:25:43;;;;;;;5.60;1.70;;;;;;;35.92;22.48;101181.86;217459;1292;94900;-89
2023/05/30 10:30:46;;;;;;;5.30;1.50;;;;;;;36.10;22.32;101176.27;216904;1292;140963;-87
2023/05/30 10:35:50;;;;;;;3.70;1.60;;;;;;;36.45;22.05;101169.60;217451;1292;137598;-89
2023/05/30 10:41:03;;;;;;;4.00;1.60;;;;;;;36.74;22.15;101169.13;216652;1292;284580;-87
2023/05/30 10:46:16;;;;;;;4.40;1.80;;;;;;;36.88;21.70;101159.80;217600;1292;137789;-87
2023/05/30 10:51:17;;;;;;;5.30;1.70;;;;;;;36.75;21.97;101169.11;217048;1291;140549;-88
2023/05/30 10:56:36;;;;;;;5.00;1.40;;;;;;;36.74;21.12;101174.18;217772;1291;95691;-84
2023/05/30 11:01:38;;;;;;;4.00;1.60;;;;;;;36.63;20.75;101168.48;216982;1292;139979;-87
2023/05/30 11:06:48;;;;;;;6.20;2.00;;;;;;;36.63;20.59;101159.61;217625;1290;137643;-86
2023/05/30 11:11:56;;;;;;;4.40;1.60;;;;;;;36.49;20.93;101155.80;216980;1292;140219;-84
2023/05/30 11:17:00;;;;;;;6.20;1.60;;;;;;;36.64;20.78;101153.80;217425;1292;138923;-87
2023/05/30 11:22:10;;;;;;;3.50;1.40;;;;;;;36.45;20.33;101152.73;217008;1291;140000;-87
2023/05/30 11:27:13;;;;;;;5.70;1.80;;;;;;;36.15;19.76;101154.96;217434;1290;138240;-87
2023/05/30 11:32:19;;;;;;;5.90;1.80;;;;;;;35.46;19.71;101152.15;216822;1291;139741;-87
2023/05/30 11:37:21;;;;;;;5.30;1.60;;;;;;;34.46;20.70;101148.52;216911;1293;137788;-86
2023/05/30 11:42:23;;;;;;;5.00;1.80;;;;;;;34.90;21.21;101146.25;216768;1292;140253;-85
2023/05/30 11:47:24;;;;;;;5.60;1.60;;;;;;;35.08;21.16;101148.92;217281;1292;137970;-87
2023/05/30 11:52:24;;;;;;;5.20;1.80;;;;;;;34.68;20.22;101140.41;216972;1290;139285;-88
2023/05/30 11:57:25;;;;;;;5.40;1.80;;;;;;;34.31;21.63;101138.16;217423;1292;137866;-89
2023/05/30 12:02:27;;;;;;;6.30;1.80;;;;;;;34.28;21.11;101138.12;217043;1293;140521;-88
2023/05/30 12:07:28;;;;;;;7.00;1.80;;;;;;;33.92;21.18;101144.76;217512;1292;94812;-86
2023/05/30 12:12:30;;;;;;;5.30;1.60;;;;;;;33.78;21.34;101150.73;216995;1290;140178;-89
2023/05/30 12:17:31;;;;;;;5.10;1.70;;;;;;;33.00;21.51;101142.92;217455;1291;138377;-88
2023/05/30 12:22:32;;;;;;;7.70;2.00;;;;;;;32.89;22.28;101134.77;216903;1291;141276;-93
2023/05/30 12:27:32;;;;;;;5.40;1.90;;;;;;;32.55;22.14;101135.75;217271;1291;138231;-89
2023/05/30 12:32:33;;;;;;;5.10;1.50;;;;;;;31.77;22.22;101129.66;217052;1290;139787;-88
2023/05/30 12:37:33;;;;;;;6.40;2.10;;;;;;;31.70;22.94;101136.39;217745;1291;95132;-87
2023/05/30 12:42:37;;;;;;;8.00;1.80;;;;;;;31.63;22.68;101142.06;217161;1292;139109;-88
2023/05/30 12:47:38;;;;;;;6.40;1.50;;;;;;;31.22;21.89;101136.91;217675;1291;138634;-88
2023/05/30 12:52:38;;;;;;;7.10;1.60;;;;;;;30.74;23.55;101149.23;217044;1290;140107;-91
2023/05/30 12:57:39;;;;;;;5.10;1.70;;;;;;;31.40;24.46;101139.98;217532;1290;138126;-87
2023/05/30 13:02:39;;;;;;;7.00;1.60;;;;;;;32.01;24.19;101139.27;216913;1291;140003;-91
2023/05/30 13:07:39;;;;;;;6.50;1.40;;;;;;;31.88;23.30;101142.54;217580;1290;95182;-87
2023/05/30 13:12:41;;;;;;;7.00;1.90;;;;;;;30.92;22.67;101144.23;217156;1291;138967;-90
2023/05/30 13:17:41;;;;;;;7.10;1.90;;;;;;;30.52;23.80;101143.82;217724;1292;137840;-90
2023/05/30 13:22:41;;;;;;;4.10;1.50;;;;;;;30.60;23.75;101147.24;217081;1291;139741;-90
2023/05/30 13:27:43;;;;;;;6.80;2.00;;;;;;;30.34;24.39;101151.48;217645;1291;137851;-90
2023/05/30 13:32:44;;;;;;;5.80;1.40;;;;;;;30.15;24.60;101153.26;217088;1291;141311;-90
2023/05/30 13:37:45;;;;;;;5.10;1.60;;;;;;;30.52;25.57;101146.42;217744;1291;95215;-89
2023/05/30 13:42:45;;;;;;;5.70;1.30;;;;;;;30.77;25.56;101144.52;217020;1290;140900;-90
2023/05/30 13:47:46;;;;;;;7.80;1.70;;;;;;;30.81;25.67;101142.14;217540;1290;137780;-88
2023/05/30 13:52:47;;;;;;;5.60;1.50;;;;;;;30.87;24.97;101150.89;217014;1291;140166;-90
2023/05/30 13:57:48;;;;;;;5.00;1.40;;;;;;;30.41;24.36;101148.87;217595;1291;137912;-91
2023/05/30 14:02:48;;;;;;;3.50;1.30;;;;;;;29.73;24.37;101146.90;217028;1291;140604;-88
2023/05/30 14:07:50;;;;;;;5.30;1.60;;;;;;;29.73;26.97;101142.40;217730;1291;95126;-91
2023/05/30 14:12:51;;;;;;;6.90;1.80;;;;;;;30.04;25.59;101136.60;217131;1291;139133;-89
2023/05/30 14:17:52;;;;;;;9.40;1.70;;;;;;;29.49;24.34;101144.26;217693;1290;138584;-90
2023/05/30 14:22:52;;;;;;;6.50;1.90;;;;;;;28.73;24.44;101149.83;217036;1290;140315;-91
2023/05/30 14:27:53;;;;;;;5.80;1.90;;;;;;;28.15;25.46;101146.23;217588;1291;137889;-91
2023/05/30 14:32:53;;;;;;;5.10;1.50;;;;;;;27.89;25.79;101147.52;216902;1290;139378;-88
2023/05/30 14:37:54;;;;;;;7.00;1.70;;;;;;;27.75;26.42;101151.41;217706;1291;95027;-92
2023/05/30 14:42:54;;;;;;;6.90;2.00;;;;;;;27.45;25.89;101159.95;217206;1291;139796;-88
2023/05/30 14:47:56;;;;;;;5.80;1.70;;;;;;;27.35;27.25;101156.46;217562;1290;137741;-90
2023/05/30 14:52:57;;;;;;;3.50;1.60;;;;;;;27.24;27.08;101162.39;217093;1290;140088;-88
2023/05/30 14:57:57;;;;;;;7.30;1.20;;;;;;;27.36;28.29;101154.30;217634;1291;137869;-87
2023/05/30 15:02:57;;;;;;;5.50;1.40;;;;;;;27.39;27.68;101150.55;216777;1292;139434;-90
2023/05/30 15:07:58;;;;;;;5.50;1.60;;;;;;;26.99;27.11;101155.27;217778;1291;95631;-88
2023/05/30 15:12:59;;;;;;;5.40;1.70;;;;;;;26.72;28.91;101152.69;216994;1291;139217;-90
2023/05/30 15:18:00;;;;;;;4.10;1.30;;;;;;;26.59;27.48;101152.85;217638;1291;137845;-90
2023/05/30 15:23:01;;;;;;;5.60;1.60;;;;;;;26.31;29.06;101151.70;217196;1290;140045;-89
2023/05/30 15:28:01;;;;;;;4.60;1.60;;;;;;;26.24;28.47;101148.77;217654;1291;137861;-90
2023/05/30 15:33:02;;;;;;;5.40;1.50;;;;;;;26.10;29.21;101140.47;217045;1290;140475;-91
2023/05/30 15:38:02;;;;;;;5.90;1.60;;;;;;;26.11;29.47;101140.13;217606;1293;95050;-92
2023/05/30 15:43:03;;;;;;;5.40;1.40;;;;;;;25.79;28.98;101138.59;216984;1290;139401;-90
2023/05/30 15:48:04;;;;;;;8.50;2.10;;;;;;;25.50;29.23;101140.98;217498;1292;138273;-91
2023/05/30 15:53:05;;;;;;;8.70;1.80;;;;;;;25.21;29.53;101146.52;216873;1292;140230;-88
2023/05/30 15:58:05;;;;;;;5.60;1.80;;;;;;;24.79;29.86;101150.69;217575;1292;138794;-92
2023/05/30 16:03:06;;;;;;;5.00;1.40;;;;;;;24.50;30.79;101152.84;217000;1291;139686;-91
2023/05/30 16:08:06;;;;;;;7.90;1.90;;;;;;;24.42;31.49;101147.80;217721;1290;95165;-92
2023/05/30 16:13:07;;;;;;;8.00;1.50;;;;;;;24.38;31.42;101142.96;217185;1291;139502;-90
2023/05/30 16:18:07;;;;;;;6.40;1.60;;;;;;;24.41;32.13;101141.02;217702;1291;138659;-89
2023/05/30 16:23:07;;;;;;;5.40;1.50;;;;;;;24.32;32.24;101149.77;217346;1290;140165;-91
2023/05/30 16:28:08;;;;;;;5.20;1.60;;;;;;;24.04;32.28;101158.58;217667;1291;137840;-90
2023/05/30 16:33:08;;;;;;;4.90;1.40;;;;;;;23.84;32.43;101154.55;217149;1291;139912;-91
2023/05/30 16:38:09;;;;;;;4.00;1.40;;;;;;;23.63;33.36;101155.61;217790;1291;94782;-91
2023/05/30 16:43:10;;;;;;;5.40;1.40;;;;;;;23.55;33.96;101154.38;216965;1292;140282;-90
2023/05/30 16:48:10;;;;;;;6.40;1.70;;;;;;;23.47;33.96;101155.30;217571;1292;137887;-92
2023/05/30 16:53:11;;;;;;;5.60;1.70;;;;;;;23.34;34.13;101158.73;217111;1290;139981;-93
2023/05/30 16:58:11;;;;;;;10.40;2.50;;;;;;;23.35;34.65;101156.37;217531;1290;138393;-91
2023/05/30 17:03:12;;;;;;;6.00;1.80;;;;;;;23.27;33.93;101160.39;216986;1290;139863;-91
2023/05/30 17:08:12;;;;;;;6.90;1.50;;;;;;;23.17;34.03;101158.73;217572;1292;95162;-92
2023/05/30 17:13:14;;;;;;;4.60;1.50;;;;;;;22.97;34.14;101155.27;217080;1290;139989;-90
2023/05/30 17:18:15;;;;;;;4.90;1.40;;;;;;;22.83;34.83;101164.48;217703;1291;138156;-93
2023/05/30 17:23:15;;;;;;;6.10;1.80;;;;;;;22.64;34.93;101166.77;217138;1290;140098;-93
2023/05/30 17:28:16;;;;;;;7.30;2.00;;;;;;;22.38;35.14;101166.86;217654;1290;137743;-92
2023/05/30 17:33:16;;;;;;;5.50;1.50;;;;;;;22.24;35.90;101173.15;217090;1293;140622;-91
2023/05/30 17:38:17;;;;;;;7.50;2.30;;;;;;;22.10;36.76;101173.98;217812;1291;95195;-92
2023/05/30 17:43:18;;;;;;;5.60;1.50;;;;;;;21.97;36.87;101173.58;217092;1292;140888;-92
2023/05/30 17:48:18;;;;;;;8.40;2.10;;;;;;;21.86;37.66;101174.48;217617;1291;138478;-91
2023/05/30 17:53:18;;;;;;;4.80;1.50;;;;;;;21.68;38.04;101172.16;216977;1290;140870;-92
2023/05/30 17:58:19;;;;;;;6.10;1.40;;;;;;;21.52;38.90;101173.55;217644;1291;138155;-91
2023/05/30 18:03:20;;;;;;;7.00;1.90;;;;;;;21.42;39.67;101179.13;216943;1292;140207;-92
2023/05/30 18:08:21;;;;;;;11.80;2.50;;;;;;;21.24;39.40;101179.66;217509;1290;94641;-92
2023/05/30 18:13:21;;;;;;;8.60;1.70;;;;;;;21.05;39.99;101180.60;217079;1292;140065;-92
2023/05/30 18:18:22;;;;;;;10.00;2.20;;;;;;;20.87;40.39;101185.43;217676;1291;137763;-91
2023/05/30 18:23:22;;;;;;;14.00;2.70;;;;;;;20.68;40.60;101192.96;216961;1290;140092;-92
2023/05/30 18:28:24;;;;;;;9.40;2.10;;;;;;;20.46;41.01;101196.70;217616;1290;138045;-92
2023/05/30 18:33:25;;;;;;;8.60;1.90;;;;;;;20.27;41.85;101200.85;217123;1291;139872;-92
2023/05/30 18:38:26;;;;;;;8.10;2.20;;;;;;;20.11;42.24;101206.94;217681;1291;139018;-89
2023/05/30 18:43:27;;;;;;;11.50;3.00;;;;;;;19.90;42.36;101203.72;217009;1293;139551;-92
2023/05/30 18:48:29;;;;;;;13.50;3.20;;;;;;;19.66;42.93;101206.86;217485;1290;139890;-92
2023/05/30 18:53:30;;;;;;;7.40;1.90;;;;;;;19.42;43.66;101202.78;217148;1291;139422;-92
2023/05/30 18:58:30;;;;;;;8.80;1.90;;;;;;;19.19;44.19;101210.31;217609;1291;137830;-93
2023/05/30 19:03:31;;;;;;;9.40;2.30;;;;;;;18.91;45.07;101209.01;217001;1294;139981;-93
2023/05/30 19:08:31;;;;;;;6.90;2.10;;;;;;;18.67;46.05;101216.73;217638;1290;137836;-94
2023/05/30 19:13:32;;;;;;;12.70;1.80;;;;;;;18.43;46.85;101219.67;217255;1291;139886;-93
2023/05/30 19:18:32;;;;;;;8.10;2.00;;;;;;;18.23;47.52;101223.14;217708;1291;138489;-93
2023/05/30 19:23:33;;;;;;;6.40;2.40;;;;;;;18.00;48.09;101225.15;216656;1293;139460;-93
2023/05/30 19:28:36;;;;;;;6.10;2.10;;;;;;;17.75;48.60;101232.84;217464;1291;137959;-92
2023/05/30 19:33:37;;;;;;;8.40;2.30;;;;;;;17.50;49.12;101236.54;216968;1290;139671;-93
2023/05/30 19:38:37;;;;;;;9.90;2.30;;;;;;;17.26;49.48;101236.84;217560;1291;138480;-93
2023/05/30 19:43:38;;;;;;;8.00;1.90;;;;;;;17.09;50.24;101239.91;217120;1292;141877;-92
2023/05/30 19:48:39;;;;;;;8.70;2.30;;;;;;;16.91;51.05;101241.63;217522;1290;138238;-93
2023/05/30 19:53:39;;;;;;;9.90;3.20;;;;;;;16.75;51.74;101241.16;217191;1290;140322;-93
2023/05/30 19:58:40;;;;;;;5.70;2.40;;;;;;;16.58;52.59;101248.32;217686;1291;137898;-93
2023/05/30 20:03:41;;;;;;;6.90;2.30;;;;;;;16.40;53.31;101252.91;217041;1291;139425;-93
2023/05/30 20:08:41;;;;;;;7.70;2.10;;;;;;;16.25;53.31;101264.16;217520;1290;138207;-91
2023/05/30 20:13:43;;;;;;;7.50;2.10;;;;;;;16.13;52.98;101259.53;217264;1291;140371;-92
2023/05/30 20:18:48;;;;;;;6.30;1.80;;;;;;;16.00;53.55;101267.92;217697;1291;137883;-92
2023/05/30 20:23:48;;;;;;;7.00;2.20;;;;;;;15.88;53.35;101262.65;217265;1291;138878;-92
2023/05/30 20:28:49;;;;;;;5.60;1.80;;;;;;;15.77;53.81;101266.34;217038;1291;139471;-92
2023/05/30 20:33:50;;;;;;;5.40;1.70;;;;;;;15.63;54.37;101272.23;217715;1291;138785;-92
2023/05/30 20:38:50;;;;;;;9.70;2.20;;;;;;;15.52;54.64;101277.43;217173;1291;139259;-93
2023/05/30 20:43:52;;;;;;;6.40;1.90;;;;;;;15.40;55.11;101283.08;217826;1292;94940;-93
2023/05/30 20:48:53;;;;;;;7.70;2.10;;;;;;;15.28;55.52;101291.78;217094;1291;139800;-92
2023/05/30 20:53:53;;;;;;;3.90;1.90;;;;;;;15.14;56.37;101298.66;217692;1291;138302;-92
2023/05/30 20:58:53;;;;;;;5.80;1.50;;;;;;;15.03;56.81;101301.84;217090;1290;140250;-93
2023/05/30 21:03:54;;;;;;;9.10;1.90;;;;;;;14.91;57.08;101302.94;217320;1291;137916;-92
2023/05/30 21:08:55;;;;;;;7.20;2.20;;;;;;;14.78;57.75;101303.86;216926;1291;140068;-90
2023/05/30 21:13:55;;;;;;;6.10;1.90;;;;;;;14.70;58.19;101305.15;217733;1290;95914;-92
2023/05/30 21:18:57;;;;;;;5.70;1.70;;;;;;;14.60;58.80;101307.69;217038;1291;139281;-92
2023/05/30 21:24:01;;;;;;;7.60;2.10;;;;;;;14.52;59.40;101306.27;217652;1291;138854;-89
2023/05/30 21:29:03;;;;;;;9.00;2.10;;;;;;;14.46;59.87;101307.31;217264;1290;139685;-86
2023/05/30 21:34:06;;;;;;;4.50;1.70;;;;;;;14.44;60.57;101311.09;217590;1291;137826;-87
2023/05/30 21:39:06;;;;;;;7.10;2.00;;;;;;;14.44;60.88;101314.25;217087;1291;140928;-89
2023/05/30 21:44:07;;;;;;;7.40;2.50;;;;;;;14.44;61.47;101325.10;217783;1291;95222;-85
2023/05/30 21:49:07;;;;;;;6.80;2.10;;;;;;;14.47;61.88;101327.33;216839;1293;140192;-86
2023/05/30 21:54:08;;;;;;;5.10;2.00;;;;;;;14.45;62.14;101335.16;217563;1291;137893;-86
2023/05/30 21:59:09;;;;;;;8.20;2.90;;;;;;;14.45;62.40;101340.70;217069;1291;140006;-87
2023/05/30 22:04:10;;;;;;;7.20;2.70;;;;;;;14.44;62.46;101348.29;217673;1291;138045;-87
2023/05/30 22:09:11;;;;;;;8.40;2.70;;;;;;;14.42;62.91;101353.65;217120;1291;141288;-87
2023/05/30 22:14:11;;;;;;;8.50;2.40;;;;;;;14.39;63.10;101351.16;217707;1292;94745;-89
2023/05/30 22:19:12;;;;;;;8.70;2.70;;;;;;;14.34;63.51;101350.79;217056;1290;139959;-88
2023/05/30 22:24:12;;;;;;;8.30;2.00;;;;;;;14.29;64.05;101351.61;217682;1291;137944;-89
2023/05/30 22:29:13;;;;;;;5.90;2.00;;;;;;;14.24;63.91;101355.73;217081;1291;140230;-88
2023/05/30 22:34:14;;;;;;;9.10;2.30;;;;;;;14.16;64.18;101360.60;217765;1290;138141;-87
2023/05/30 22:39:15;;;;;;;7.60;2.30;;;;;;;14.10;64.49;101365.76;216988;1290;236421;-87
2023/05/30 22:44:15;;;;;;;7.50;2.40;;;;;;;14.05;64.94;101366.73;217826;1290;94819;-88
2023/05/30 22:49:15;;;;;;;9.90;2.90;;;;;;;14.01;64.95;101366.27;217103;1291;140266;-88